createdAt,value
2019-02-07T00:00:23.194Z,95980.31
2019-02-07T00:02:51.788Z,95975.94
2019-02-07T00:05:20.415Z,95974.70
2019-02-07T00:07:49.109Z,95966.49
2019-02-07T00:10:19.497Z,95961.27
2019-02-07T00:12:48.096Z,95958.81
2019-02-07T00:15:17.002Z,95963.98
2019-02-07T00:17:45.598Z,95955.23
2019-02-07T00:20:16.493Z,95959.13
2019-02-07T00:22:45.127Z,95947.23
2019-02-07T00:25:13.717Z,95948.14
2019-02-07T00:27:42.442Z,95944.83
2019-02-07T00:30:20.119Z,95949.28
2019-02-07T00:32:48.713Z,95944.30
2019-02-07T00:35:17.349Z,95950.50
2019-02-07T00:37:45.942Z,95948.11
2019-02-07T00:40:20.290Z,95941.54
2019-02-07T00:42:49.106Z,95938.26
2019-02-07T00:45:20.978Z,95939.63
2019-02-07T00:47:49.639Z,95932.08
2019-02-07T00:50:19.177Z,95933.80
2019-02-07T00:52:47.862Z,95939.70
2019-02-07T00:55:20.936Z,95935.87
2019-02-07T00:57:49.546Z,95925.50
2019-02-07T01:00:26.159Z,95929.52
2019-02-07T01:02:54.753Z,95933.92
2019-02-07T01:05:24.019Z,95926.91
2019-02-07T01:07:52.845Z,95924.53
2019-02-07T01:10:26.877Z,95923.14
2019-02-07T01:12:55.769Z,95921.05
2019-02-07T01:15:24.387Z,95915.09
2019-02-07T01:17:52.982Z,95910.55
2019-02-07T01:20:21.570Z,95919.11
2019-02-07T01:22:50.162Z,95913.28
2019-02-07T01:25:23.900Z,95926.30
2019-02-07T01:27:52.686Z,95922.66
2019-02-07T01:30:26.217Z,95928.01
2019-02-07T01:32:54.813Z,95928.91
2019-02-07T01:35:23.416Z,95923.78
2019-02-07T01:37:52.482Z,95926.33
2019-02-07T01:40:21.580Z,95925.39
2019-02-07T01:42:50.174Z,95921.13
2019-02-07T01:45:23.417Z,95912.67
2019-02-07T01:47:52.077Z,95913.95
2019-02-07T01:50:23.166Z,95915.10
2019-02-07T01:52:52.038Z,95912.69
2019-02-07T01:55:20.722Z,95896.52
2019-02-07T01:57:49.310Z,95899.83
2019-02-07T02:00:19.114Z,95897.88
2019-02-07T02:02:47.690Z,95890.77
2019-02-07T02:05:17.846Z,95876.13
2019-02-07T02:07:46.814Z,95876.02
2019-02-07T02:10:20.815Z,95877.80
2019-02-07T02:12:49.405Z,95881.89
2019-02-07T02:15:24.649Z,95877.06
2019-02-07T02:17:49.787Z,95887.62
2019-02-07T02:20:20.073Z,95888.33
2019-02-07T02:22:48.678Z,95887.64
2019-02-07T02:25:17.305Z,95889.74
2019-02-07T02:27:45.892Z,95887.61
2019-02-07T02:30:28.963Z,95890.05
2019-02-07T02:32:57.619Z,95881.40
2019-02-07T02:35:26.286Z,95883.30
2019-02-07T02:37:54.886Z,95886.55
2019-02-07T02:40:23.501Z,95881.92
2019-02-07T02:42:52.146Z,95884.66
2019-02-07T02:45:22.806Z,95885.80
2019-02-07T02:48:03.427Z,95875.96
2019-02-07T02:50:50.608Z,95880.36
2019-02-07T02:53:19.299Z,95875.84
2019-02-07T02:55:47.923Z,95872.71
2019-02-07T02:58:16.523Z,95875.28
2019-02-07T03:01:02.872Z,95875.58
2019-02-07T03:03:33.030Z,95864.55
2019-02-07T03:06:03.181Z,95867.02
2019-02-07T03:08:48.555Z,95860.98
2019-02-07T03:11:24.863Z,95858.09
2019-02-07T03:14:03.753Z,95860.80
2019-02-07T03:16:50.465Z,95866.89
2019-02-07T03:19:38.833Z,95870.28
2019-02-07T03:22:25.727Z,95867.59
2019-02-07T03:25:12.333Z,95866.03
2019-02-07T03:27:48.586Z,95869.80
2019-02-07T03:34:12.283Z,95869.80
2019-02-07T03:36:42.507Z,95862.87
2019-02-07T03:39:15.889Z,95864.52
2019-02-07T03:41:52.102Z,95865.08
2019-02-07T03:44:24.962Z,95862.42
2019-02-07T03:46:58.132Z,95856.89
2019-02-07T03:49:28.340Z,95859.63
2019-02-07T03:51:58.507Z,95858.23
2019-02-07T03:54:45.153Z,95854.05
2019-02-07T03:57:15.345Z,95851.50
2019-02-07T03:59:51.683Z,95854.49
2019-02-07T04:02:37.109Z,95854.83
2019-02-07T04:05:11.785Z,95843.16
2019-02-07T04:07:51.072Z,95843.74
2019-02-07T04:10:27.224Z,95844.38
2019-02-07T04:12:57.759Z,95848.63
2019-02-07T04:15:44.184Z,95840.70
2019-02-07T04:18:23.337Z,95840.13
2019-02-07T04:20:56.081Z,95849.39
2019-02-07T04:23:26.244Z,95848.33
2019-02-07T04:26:02.388Z,95844.25
2019-02-07T04:28:38.670Z,95837.38
2019-02-07T04:31:12.224Z,95839.83
2019-02-07T04:33:54.344Z,95845.38
2019-02-07T04:36:33.415Z,95840.85
2019-02-07T04:39:09.561Z,95839.50
2019-02-07T04:41:42.553Z,95840.37
2019-02-07T04:44:15.837Z,95843.44
2019-02-07T04:47:01.105Z,95844.93
2019-02-07T04:49:34.193Z,95841.78
2019-02-07T04:52:10.360Z,95840.59
2019-02-07T04:54:40.518Z,95838.62
2019-02-07T04:57:20.064Z,95836.20
2019-02-07T04:59:50.230Z,95846.44
2019-02-07T05:02:32.329Z,95839.87
2019-02-07T05:05:02.488Z,95833.70
2019-02-07T05:07:38.943Z,95836.78
2019-02-07T05:10:28.170Z,95836.08
2019-02-07T05:12:58.336Z,95843.70
2019-02-07T05:15:46.633Z,95840.25
2019-02-07T05:18:16.802Z,95844.44
2019-02-07T05:20:47.003Z,95836.59
2019-02-07T05:23:17.166Z,95834.13
2019-02-07T05:26:03.779Z,95834.42
2019-02-07T05:28:39.929Z,95826.48
2019-02-07T05:31:17.317Z,95829.21
2019-02-07T05:33:47.470Z,95834.36
2019-02-07T05:36:20.590Z,95835.24
2019-02-07T05:38:53.500Z,95842.53
2019-02-07T05:41:23.934Z,95834.17
2019-02-07T05:43:54.100Z,95826.44
2019-02-07T05:46:50.471Z,95831.05
2019-02-07T05:49:11.896Z,95829.05
2019-02-07T05:51:54.198Z,95828.74
2019-02-07T05:54:40.729Z,95825.48
2019-02-07T05:57:28.499Z,95831.56
2019-02-07T06:00:01.672Z,95829.28
2019-02-07T06:02:34.645Z,95822.98
2019-02-07T06:05:20.864Z,95823.75
2019-02-07T06:07:51.325Z,95820.84
2019-02-07T06:10:21.500Z,95820.06
2019-02-07T06:12:54.493Z,95825.34
2019-02-07T06:15:41.060Z,95823.87
2019-02-07T06:22:36.776Z,95814.77
2019-02-07T06:25:26.235Z,95823.55
2019-02-07T06:27:56.388Z,95824.42
2019-02-07T06:30:29.326Z,95826.26
2019-02-07T06:33:05.487Z,95822.13
2019-02-07T06:35:47.560Z,95814.52
2019-02-07T06:38:36.108Z,95816.75
2019-02-07T06:41:22.827Z,95823.81
2019-02-07T06:43:53.020Z,95820.18
2019-02-07T06:46:23.175Z,95830.88
2019-02-07T06:49:11.401Z,95827.02
2019-02-07T06:51:47.547Z,95826.72
2019-02-07T06:54:29.955Z,95824.94
2019-02-07T06:57:17.040Z,95825.81
2019-02-07T06:59:50.308Z,95824.34
2019-02-07T07:02:20.476Z,95832.33
2019-02-07T07:04:56.420Z,95825.42
2019-02-07T07:07:32.905Z,95825.31
2019-02-07T07:10:12.173Z,95825.59
2019-02-07T07:12:42.327Z,95824.29
2019-02-07T07:15:28.925Z,95820.15
2019-02-07T07:18:05.112Z,95823.30
2019-02-07T07:20:38.533Z,95821.19
2019-02-07T07:23:25.817Z,95809.20
2019-02-07T07:25:58.934Z,95816.23
2019-02-07T07:28:31.779Z,95808.02
2019-02-07T07:31:13.785Z,95814.42
2019-02-07T07:33:49.881Z,95811.11
2019-02-07T07:36:20.054Z,95813.95
2019-02-07T07:39:05.558Z,95820.05
2019-02-07T07:41:48.025Z,95817.70
2019-02-07T07:44:21.373Z,95816.30
2019-02-07T07:46:51.519Z,95816.73
2019-02-07T07:49:39.304Z,95816.63
2019-02-07T07:52:15.745Z,95816.44
2019-02-07T07:54:57.554Z,95819.64
2019-02-07T07:57:33.731Z,95821.42
2019-02-07T08:00:03.885Z,95822.86
2019-02-07T08:02:50.526Z,95825.86
2019-02-07T08:05:20.740Z,95817.13
2019-02-07T08:07:50.891Z,95818.27
2019-02-07T08:10:21.077Z,95817.59
2019-02-07T08:12:51.437Z,95817.52
2019-02-07T08:15:30.651Z,95818.27
2019-02-07T08:18:00.794Z,95816.51
2019-02-07T08:20:30.938Z,95814.09
2019-02-07T08:23:03.804Z,95819.06
2019-02-07T08:25:33.980Z,95809.67
2019-02-07T08:28:12.702Z,95811.89
2019-02-07T08:30:45.646Z,95810.69
2019-02-07T08:33:32.394Z,95810.69
2019-02-07T08:36:02.553Z,95807.63
2019-02-07T08:38:38.749Z,95802.56
2019-02-07T08:41:21.562Z,95805.58
2019-02-07T08:44:03.795Z,95799.59
2019-02-07T08:46:42.531Z,95798.76
2019-02-07T08:49:13.808Z,95805.41
2019-02-07T08:51:44.143Z,95806.21
2019-02-07T08:54:14.297Z,95800.13
2019-02-07T08:56:56.306Z,95781.59
2019-02-07T08:59:26.462Z,95789.53
2019-02-07T09:01:59.436Z,95796.92
2019-02-07T09:04:35.884Z,95778.17
2019-02-07T09:07:21.092Z,95794.41
2019-02-07T09:09:51.254Z,95802.02
2019-02-07T09:12:27.171Z,95812.53
2019-02-07T09:15:03.201Z,95815.97
2019-02-07T09:17:44.932Z,95780.88
2019-02-07T09:20:21.110Z,95799.03
2019-02-07T09:22:51.267Z,95782.89
2019-02-07T09:25:34.534Z,95807.27
2019-02-07T09:28:10.588Z,95803.72
2019-02-07T09:30:49.872Z,95791.13
2019-02-07T09:33:32.174Z,95825.55
2019-02-07T09:36:18.606Z,95788.58
2019-02-07T09:39:05.426Z,95796.59
2019-02-07T09:41:41.399Z,95807.63
2019-02-07T09:44:15.048Z,95807.63
2019-02-07T09:46:47.752Z,95785.30
2019-02-07T09:49:21.092Z,95774.50
2019-02-07T09:51:57.525Z,95795.77
2019-02-07T09:54:43.864Z,95812.39
2019-02-07T09:57:20.277Z,95809.22
2019-02-07T10:00:02.731Z,95811.59
2019-02-07T10:02:48.265Z,95822.38
2019-02-07T10:05:21.386Z,95817.49
2019-02-07T10:07:51.537Z,95827.35
2019-02-07T10:10:27.658Z,95828.86
2019-02-07T10:13:15.422Z,95828.47
2019-02-07T10:15:45.591Z,95823.20
2019-02-07T10:18:33.256Z,95818.23
2019-02-07T10:21:12.744Z,95820.87
2019-02-07T10:23:59.093Z,95820.55
2019-02-07T10:26:47.474Z,95822.58
2019-02-07T10:29:17.644Z,95835.14
2019-02-07T10:31:47.805Z,95841.05
2019-02-07T10:34:24.250Z,95832.24
2019-02-07T10:36:57.197Z,95836.62
2019-02-07T10:39:27.355Z,95837.11
2019-02-07T10:41:58.793Z,95828.76
2019-02-07T10:44:32.115Z,95831.83
2019-02-07T10:47:08.399Z,95827.45
2019-02-07T10:49:59.346Z,95822.79
2019-02-07T10:52:32.707Z,95823.79
2019-02-07T10:55:19.028Z,95823.98
2019-02-07T10:58:05.414Z,95810.66
2019-02-07T11:00:47.902Z,95824.17
2019-02-07T11:03:30.195Z,95829.31
2019-02-07T11:06:16.784Z,95825.69
2019-02-07T11:08:59.042Z,95803.19
2019-02-07T11:11:29.197Z,95796.68
2019-02-07T11:14:08.200Z,95796.50
2019-02-07T11:16:38.356Z,95808.76
2019-02-07T11:19:21.594Z,95800.51
2019-02-07T11:21:58.087Z,95798.41
2019-02-07T11:24:37.739Z,95794.47
2019-02-07T11:27:26.732Z,95796.44
2019-02-07T11:29:56.994Z,95799.78
2019-02-07T11:32:27.952Z,95797.48
2019-02-07T11:35:07.201Z,95798.80
2019-02-07T11:37:53.920Z,95804.95
2019-02-07T11:40:24.454Z,95804.97
2019-02-07T11:42:57.653Z,95804.91
2019-02-07T11:45:43.163Z,95811.66
2019-02-07T11:48:28.679Z,95807.39
2019-02-07T11:50:58.873Z,95808.05
2019-02-07T11:53:38.408Z,95827.93
2019-02-07T11:56:24.897Z,95813.16
2019-02-07T11:59:04.321Z,95800.22
2019-02-07T12:01:34.477Z,95787.95
2019-02-07T12:04:07.643Z,95777.39
2019-02-07T12:06:43.884Z,95798.92
2019-02-07T12:09:14.041Z,95767.68
2019-02-07T12:11:48.650Z,95774.44
2019-02-07T12:14:18.972Z,95776.16
2019-02-07T12:16:49.172Z,95790.69
2019-02-07T12:19:35.496Z,95789.38
2019-02-07T12:22:05.649Z,95796.30
2019-02-07T12:24:51.265Z,95790.56
2019-02-07T12:27:36.760Z,95789.48
2019-02-07T12:30:19.033Z,95777.96
2019-02-07T12:32:52.455Z,95776.69
2019-02-07T12:35:38.065Z,95771.28
2019-02-07T12:38:11.296Z,95785.94
2019-02-07T12:40:41.449Z,95766.62
2019-02-07T12:43:12.337Z,95766.81
2019-02-07T12:46:00.635Z,95778.63
2019-02-07T12:48:36.585Z,95789.76
2019-02-07T12:51:13.692Z,95788.56
2019-02-07T12:53:49.699Z,95790.71
2019-02-07T12:56:23.638Z,95792.16
2019-02-07T12:58:59.615Z,95789.33
2019-02-07T13:01:38.915Z,95781.70
2019-02-07T13:04:25.529Z,95781.70
2019-02-07T13:07:01.687Z,95782.50
2019-02-07T13:09:43.856Z,95780.92
2019-02-07T13:12:14.280Z,95777.70
2019-02-07T13:14:56.649Z,95773.31
2019-02-07T13:17:43.236Z,95770.27
2019-02-07T13:20:32.688Z,95759.31
2019-02-07T13:23:02.890Z,95754.17
2019-02-07T13:25:38.939Z,95753.53
2019-02-07T13:28:19.448Z,95749.29
2019-02-07T13:30:49.674Z,95742.66
2019-02-07T13:33:19.971Z,95750.00
2019-02-07T13:36:02.262Z,95751.47
2019-02-07T13:38:38.748Z,95740.48
2019-02-07T13:41:12.511Z,95740.78
2019-02-07T13:43:59.086Z,95742.41
2019-02-07T13:46:35.069Z,95743.59
2019-02-07T13:49:05.232Z,95750.53
2019-02-07T13:51:41.210Z,95764.22
2019-02-07T13:54:14.054Z,95746.81
2019-02-07T13:56:44.244Z,95752.32
2019-02-07T13:59:14.403Z,95759.24
2019-02-07T14:02:02.941Z,95753.99
2019-02-07T14:04:44.433Z,95747.31
2019-02-07T14:07:23.948Z,95746.28
2019-02-07T14:10:06.038Z,95742.69
2019-02-07T14:12:41.955Z,95756.09
2019-02-07T14:15:29.281Z,95766.88
2019-02-07T14:17:59.457Z,95776.56
2019-02-07T14:20:29.617Z,95775.84
2019-02-07T14:23:05.644Z,95775.70
2019-02-07T14:25:36.003Z,95785.23
2019-02-07T14:28:24.268Z,95767.95
2019-02-07T14:31:00.265Z,95761.58
2019-02-07T14:33:48.478Z,95763.41
2019-02-07T14:36:34.594Z,95759.16
2019-02-07T14:39:07.566Z,95755.18
2019-02-07T14:41:47.222Z,95762.19
2019-02-07T14:44:17.376Z,95752.22
2019-02-07T14:46:52.328Z,95753.13
2019-02-07T14:49:20.913Z,95754.45
2019-02-07T14:51:49.501Z,95751.41
2019-02-07T14:54:18.083Z,95752.94
2019-02-07T14:56:46.662Z,95751.30
2019-02-07T14:59:15.288Z,95742.76
2019-02-07T15:01:43.871Z,95749.34
2019-02-07T15:04:12.456Z,95746.23
2019-02-07T15:06:41.067Z,95740.17
2019-02-07T15:09:15.052Z,95745.84
2019-02-07T15:11:43.632Z,95752.77
2019-02-07T15:14:12.214Z,95749.67
2019-02-07T15:16:40.839Z,95746.97
2019-02-07T15:19:10.319Z,95758.30
2019-02-07T15:21:38.902Z,95756.80
2019-02-07T15:24:09.097Z,95751.51
2019-02-07T15:26:37.721Z,95756.64
2019-02-07T15:29:06.342Z,95752.48
2019-02-07T15:31:34.923Z,95756.42
2019-02-07T15:34:03.501Z,95754.10
2019-02-07T15:36:32.079Z,95753.35
2019-02-07T15:39:00.667Z,95746.94
2019-02-07T15:41:29.250Z,95744.80
2019-02-07T15:43:57.836Z,95747.91
2019-02-07T15:46:26.417Z,95743.11
2019-02-07T15:48:55.004Z,95746.03
2019-02-07T15:51:23.582Z,95739.24
2019-02-07T15:53:52.174Z,95735.27
2019-02-07T15:56:21.247Z,95731.86
2019-02-07T15:58:51.407Z,95730.81
2019-02-07T16:01:27.568Z,95731.63
2019-02-07T16:03:57.763Z,95730.70
2019-02-07T16:06:26.448Z,95726.45
2019-02-07T16:08:55.035Z,95730.02
2019-02-07T16:11:23.614Z,95724.55
2019-02-07T16:13:52.194Z,95719.67
2019-02-07T16:16:20.777Z,95725.59
2019-02-07T16:18:49.368Z,95724.63
2019-02-07T16:21:17.949Z,95724.17
2019-02-07T16:23:46.535Z,95720.69
2019-02-07T16:26:15.115Z,95726.38
2019-02-07T16:28:43.693Z,95718.92
2019-02-07T16:31:12.276Z,95712.88
2019-02-07T16:33:40.905Z,95717.60
2019-02-07T16:36:09.855Z,95734.02
2019-02-07T16:38:38.454Z,95723.91
2019-02-07T16:41:10.511Z,95724.20
2019-02-07T16:43:38.783Z,95731.78
2019-02-07T16:46:08.300Z,95735.09
2019-02-07T16:48:36.888Z,95750.94
2019-02-07T16:51:05.876Z,95758.16
2019-02-07T16:53:34.452Z,95768.80
2019-02-07T16:56:03.413Z,95774.55
2019-02-07T16:58:31.999Z,95782.00
2019-02-07T17:01:00.583Z,95807.39
2019-02-07T17:03:29.166Z,95796.56
2019-02-07T17:05:57.811Z,95797.28
2019-02-07T17:08:26.414Z,95807.98
2019-02-07T17:10:55.043Z,95807.12
2019-02-07T17:13:23.623Z,95797.87
2019-02-07T17:15:52.213Z,95816.23
2019-02-07T17:18:20.799Z,95827.20
2019-02-07T17:23:57.134Z,95532.19
2019-02-07T17:26:25.873Z,95544.67
2019-02-07T17:28:54.463Z,95553.95
2019-02-07T17:31:23.061Z,95556.97
2019-02-07T17:33:51.642Z,95563.09
2019-02-07T17:36:20.315Z,95571.16
2019-02-07T17:38:49.011Z,95579.70
2019-02-07T17:41:17.611Z,95598.84
2019-02-07T17:43:46.193Z,95598.86
2019-02-07T17:46:14.779Z,95601.11
2019-02-07T17:48:43.410Z,95618.84
2019-02-07T17:51:22.641Z,95624.63
2019-02-07T17:53:42.477Z,95629.15
2019-02-07T17:56:11.851Z,95628.03
2019-02-07T17:58:56.646Z,95619.16
2019-02-07T18:01:31.615Z,95610.64
2019-02-07T18:04:02.895Z,95614.97
2019-02-07T18:06:31.911Z,95624.81
2019-02-07T18:09:00.557Z,95627.86
2019-02-07T18:11:29.179Z,95632.39
2019-02-07T18:13:57.920Z,95643.02
2019-02-07T18:16:26.625Z,95640.45
2019-02-07T18:18:55.457Z,95654.30
2019-02-07T18:21:33.709Z,95651.23
2019-02-07T18:23:54.376Z,95652.36
2019-02-07T18:26:23.301Z,95649.78
2019-02-07T18:28:51.975Z,95656.23
2019-02-07T18:31:20.555Z,95652.36
2019-02-07T18:33:49.665Z,95664.61
2019-02-07T18:36:18.275Z,95664.94
2019-02-07T18:38:46.975Z,95674.59
2019-02-07T18:41:15.871Z,95666.55
2019-02-07T18:43:44.460Z,95678.30
2019-02-07T18:46:13.053Z,95685.20
2019-02-07T18:48:41.652Z,95695.80
2019-02-07T18:51:10.401Z,95690.20
2019-02-07T18:53:39.000Z,95695.20
2019-02-07T18:56:08.192Z,95697.32
2019-02-07T18:58:36.783Z,95704.56
2019-02-07T19:01:05.377Z,95703.27
2019-02-07T19:03:34.052Z,95709.08
2019-02-07T19:06:03.261Z,95710.20
2019-02-07T19:08:31.843Z,95708.75
2019-02-07T19:11:00.434Z,95711.49
2019-02-07T19:13:29.029Z,95723.90
2019-02-07T19:15:59.485Z,95717.45
2019-02-07T19:18:28.076Z,95725.86
2019-02-07T19:20:56.816Z,95740.02
2019-02-07T19:23:25.562Z,95742.59
2019-02-07T19:25:54.243Z,95752.58
2019-02-07T19:28:22.833Z,95757.41
2019-02-07T19:30:51.504Z,95755.80
2019-02-07T19:33:22.511Z,95753.83
2019-02-07T19:35:50.545Z,95757.05
2019-02-07T19:38:19.642Z,95759.62
2019-02-07T19:40:48.223Z,95763.53
2019-02-07T19:43:17.130Z,95767.36
2019-02-07T19:45:45.715Z,95772.23
2019-02-07T19:48:14.318Z,95772.83
2019-02-07T19:50:42.888Z,95777.59
2019-02-07T19:53:11.480Z,95784.99
2019-02-07T19:55:40.240Z,95782.09
2019-02-07T19:58:09.486Z,95786.55
2019-02-07T20:00:39.522Z,95785.63
2019-02-07T20:03:08.461Z,95787.84
2019-02-07T20:05:37.046Z,95791.36
2019-02-07T20:08:05.667Z,95799.13
2019-02-07T20:10:34.623Z,95807.73
2019-02-07T20:13:03.208Z,95809.29
2019-02-07T20:15:42.683Z,95802.19
2019-02-07T20:18:12.083Z,95808.14
2019-02-07T20:20:40.973Z,95810.56
2019-02-07T20:23:09.850Z,95812.98
2019-02-07T20:25:38.906Z,95815.08
2019-02-07T20:28:08.035Z,95813.46
2019-02-07T20:30:44.421Z,95818.63
2019-02-07T20:33:13.012Z,95818.63
2019-02-07T20:35:41.692Z,95818.86
2019-02-07T20:38:10.937Z,95829.66
2019-02-07T20:40:39.519Z,95826.14
2019-02-07T20:43:08.957Z,95838.42
2019-02-07T20:45:37.896Z,95839.00
2019-02-07T20:48:07.703Z,95828.38
2019-02-07T20:50:36.284Z,95829.30
2019-02-07T20:53:05.264Z,95831.27
2019-02-07T20:55:33.895Z,95836.75
2019-02-07T20:58:03.255Z,95836.06
2019-02-07T21:00:36.981Z,95842.86
2019-02-07T21:03:05.775Z,95843.48
2019-02-07T21:05:34.372Z,95836.30
2019-02-07T21:08:02.961Z,95836.11
2019-02-07T21:10:37.107Z,95834.69
2019-02-07T21:13:07.076Z,95830.14
2019-02-07T21:15:35.675Z,95833.03
2019-02-07T21:18:04.654Z,95845.47
2019-02-07T21:20:33.267Z,95845.71
2019-02-07T21:23:01.954Z,95856.66
2019-02-07T21:25:39.725Z,95867.03
2019-02-07T21:28:09.287Z,95862.58
2019-02-07T21:30:37.934Z,95859.95
2019-02-07T21:33:06.919Z,95861.54
2019-02-07T21:35:35.560Z,95853.67
2019-02-07T21:38:04.943Z,95851.33
2019-02-07T21:40:33.738Z,95857.14
2019-02-07T21:43:02.402Z,95860.98
2019-02-07T21:45:31.489Z,95868.40
2019-02-07T21:48:00.695Z,95873.62
2019-02-07T21:50:33.447Z,95871.95
2019-02-07T21:53:02.147Z,95871.46
2019-02-07T21:55:36.698Z,95866.38
2019-02-07T21:58:06.914Z,95867.50
2019-02-07T22:00:44.027Z,95858.95
2019-02-07T22:03:13.711Z,95860.58
2019-02-07T22:05:42.299Z,95859.35
2019-02-07T22:08:11.710Z,95858.22
2019-02-07T22:10:40.300Z,95859.06
2019-02-07T22:13:10.377Z,95857.29
2019-02-07T22:15:38.976Z,95868.71
2019-02-07T22:18:07.979Z,95869.02
2019-02-07T22:20:36.660Z,95860.92
2019-02-07T22:23:05.514Z,95863.50
2019-02-07T22:25:34.133Z,95861.30
2019-02-07T22:28:02.819Z,95862.27
2019-02-07T22:30:36.310Z,95864.13
2019-02-07T22:33:05.880Z,95858.56
2019-02-07T22:35:34.538Z,95855.34
2019-02-07T22:38:03.121Z,95862.25
2019-02-07T22:40:31.710Z,95866.45
2019-02-07T22:43:01.195Z,95867.19
2019-02-07T22:45:29.875Z,95861.56
2019-02-07T22:47:58.459Z,95871.80
2019-02-07T22:50:30.964Z,95866.34
2019-02-07T22:53:01.196Z,95872.65
2019-02-07T22:55:29.819Z,95873.67
2019-02-07T22:57:58.410Z,95870.58
2019-02-07T23:00:34.458Z,95862.48
2019-02-07T23:03:05.206Z,95855.05
2019-02-07T23:05:37.190Z,95857.01
2019-02-07T23:08:07.380Z,95853.01
2019-02-07T23:10:35.964Z,95850.27
2019-02-07T23:13:05.190Z,95852.16
2019-02-07T23:15:33.762Z,95849.84
2019-02-07T23:18:02.347Z,95842.44
2019-02-07T23:20:30.940Z,95843.55
2019-02-07T23:23:05.075Z,95837.27
2019-02-07T23:25:29.831Z,95836.28
2019-02-07T23:27:58.834Z,95844.97
2019-02-07T23:30:27.520Z,95841.72
2019-02-07T23:32:56.112Z,95842.06
2019-02-07T23:35:24.692Z,95844.38
2019-02-07T23:37:53.405Z,95841.86
2019-02-07T23:40:22.438Z,95838.27
2019-02-07T23:42:51.023Z,95833.31
2019-02-07T23:45:21.024Z,95829.34
2019-02-07T23:47:49.628Z,95824.36
2019-02-07T23:50:18.339Z,95827.20
2019-02-07T23:52:46.961Z,95833.53
2019-02-07T23:55:16.627Z,95828.00
2019-02-07T23:57:45.217Z,95828.75
